Strafford, MO (65757)

08:07 AM CST on Januar 28, 2015 (GMT -0600)
Red Clover & Jarrett Branch | Change Station
CLOSE
Current Station
Personligvejrstation
Location: Strafford, MO
Højde: 1313 ft
Vejrstationer i nærheden
Aktivtvarsel: Special Statement

Elev 1313 ft 37.31 °N, 93.04 °W | Updated 7 seconds ago

Klart
Klart
39.2 ° F
Føles som 32 ° F
N
10.7
Vind Skiftende Vind SV
Gusts 17.4 mph

I dag
Høj -- | Lav -- ° F
--% Risiko for nedbør
I går
Høj -- | Lav -- ° F
Precip. -- tommer
7:18 AM 5:32 PM
Tiltagende måne, 65% visible
Tryk 30.09 tommer
Sigtbarhed 10.0 mil
Skyer Klart
Vindeffekt 32 ° F
Dugpunkt 35 ° F
Luftfugtighed 84%
Regnmængde 0.00 tommer
Snedybde Ikke tilgængelig.
UV 0 fra 12
Pollen 3.30 fra 12
Luftkvalitet Ikke tilgængelig.
Flu Activity Ikke tilgængelig.
METAR KSGF 281352Z 18014G26KT 10SM CLR 04/01 A3007 RMK AO2 PK WND 14026/1344 SLP188 T00390006

More Conditions Fewer Conditions

Tryk 30.09 tommer
Sigtbarhed 10.0 mil
Skyer Klart
Vindeffekt 32 ° F
Dugpunkt 35 ° F
Luftfugtighed 84%
Regnmængde 0.00 tommer
Snedybde Ikke tilgængelig.
UV 0 fra 12
Pollen 3.30 fra 12
Luftkvalitet Ikke tilgængelig.
Flu Activity Ikke tilgængelig.
METAR KSGF 281352Z 18014G26KT 10SM CLR 04/01 A3007 RMK AO2 PK WND 14026/1344 SLP188 T00390006

More Conditions Fewer Conditions

10-Day Weather Forecast

Almanac

Astronomi

Jan. 28, 2015 Opgang Nedgang
Faktisktidspunkt
Civilttusmørke
Nautisktusmørke
Astronomisktusmørke
Måne
Synligtlys’ længde
Dagens længde
Tomorrow will be .
, % of the Moon is Illuminated

Ekstremer i dag

State Highs State Lows

Community

WunderPhotos

Upload Photos

1,791,148 Billeder uploaded!

WunderBlogs® & News

Nearby

Luftkvalitet

  Luftkvalitet AQ-indeks Forureningskilder
Not available.

Snedybde

Station Depth Højde

Jordskælvsaktivitet

By Distance Mag. Time & Date
Minimum magnitude displayed is 2.5.

Kystnære vandtemperaturer

Sted Temperatur

Vejrstationer i nærheden